Time;durP1;ratioP1;P1;durP2;ratioP2;P2;SDS_P1;SDS_P2;PMS_P1;PMS_P2;Temp;Humidity;BMP_temperature;BMP_pressure;BME280_temperature;BME280_humidity;BME280_pressure;Samples;Min_cycle;Max_cycle;Signal;HPM_P1;HPM_P2
2022/09/10 00:01:42;;;;;;;12.55;8.80;;;14.70;99.90;;;;;;5012197;28;20046;-95
2022/09/10 00:04:12;;;;;;;12.20;9.15;;;14.70;99.90;;;;;;5012070;28;20046;-96
2022/09/10 00:06:38;;;;;;;12.52;7.40;;;14.70;99.90;;;;;;5010720;28;20050;-96
2022/09/10 00:09:04;;;;;;;12.93;7.93;;;14.60;99.90;;;;;;5011843;28;20069;-96
2022/09/10 00:11:30;;;;;;;14.65;7.80;;;14.60;99.90;;;;;;5011552;28;20095;-96
2022/09/10 00:13:58;;;;;;;12.52;8.60;;;14.60;99.90;;;;;;4991334;28;20583;-96
2022/09/10 00:16:25;;;;;;;9.85;7.82;;;14.70;99.90;;;;;;4991523;28;20045;-96
2022/09/10 00:18:51;;;;;;;14.35;9.15;;;14.70;99.90;;;;;;4993013;28;20042;-96
2022/09/10 00:21:19;;;;;;;12.27;7.88;;;14.70;99.90;;;;;;4992831;28;20073;-96
2022/09/10 00:23:45;;;;;;;14.05;8.35;;;14.70;99.90;;;;;;4992819;28;20074;-96
2022/09/10 00:26:12;;;;;;;15.45;8.05;;;14.80;99.90;;;;;;4992629;28;20086;-96
2022/09/10 00:28:38;;;;;;;18.58;8.38;;;14.80;99.90;;;;;;4976811;28;20413;-96
2022/09/10 00:31:03;;;;;;;13.70;8.88;;;14.80;99.90;;;;;;4992438;28;20042;-96
2022/09/10 00:33:29;;;;;;;18.33;9.93;;;14.90;99.90;;;;;;4992531;28;20054;-95
2022/09/10 00:35:56;;;;;;;16.17;9.40;;;14.90;99.90;;;;;;4992292;28;20058;-96
2022/09/10 00:38:22;;;;;;;13.18;8.35;;;15.00;99.90;;;;;;4992540;28;20089;-96
2022/09/10 00:40:48;;;;;;;11.48;8.60;;;15.00;99.90;;;;;;4992211;28;20086;-96
2022/09/10 00:43:19;;;;;;;16.65;9.25;;;15.00;99.90;;;;;;4991677;28;20089;-96
2022/09/10 00:45:49;;;;;;;16.75;9.18;;;15.00;99.90;;;;;;4991775;28;20406;-96
2022/09/10 00:48:20;;;;;;;19.23;9.20;;;15.00;99.90;;;;;;4999453;28;20103;-96
2022/09/10 00:50:48;;;;;;;13.18;9.57;;;15.10;99.90;;;;;;5012576;28;20049;-96
2022/09/10 00:53:20;;;;;;;14.82;10.18;;;15.10;99.90;;;;;;5015671;28;20084;-96
2022/09/10 00:58:19;;;;;;;14.70;9.65;;;15.10;99.90;;;;;;5015589;28;20054;-95
2022/09/10 01:00:47;;;;;;;15.35;9.95;;;15.10;99.90;;;;;;5015621;28;20807;-96
2022/09/10 01:03:15;;;;;;;16.33;11.13;;;15.20;99.90;;;;;;5015642;28;20044;-96
2022/09/10 01:05:45;;;;;;;15.25;9.68;;;15.20;99.90;;;;;;5014866;28;20045;-95
2022/09/10 01:08:15;;;;;;;17.98;11.13;;;15.10;99.90;;;;;;5014998;28;20046;-96
2022/09/10 01:11:08;;;;;;;19.48;10.77;;;15.20;99.90;;;;;;5015409;28;20049;-96
2022/09/10 01:14:02;;;;;;;14.65;10.15;;;15.20;99.90;;;;;;4998890;28;20089;-95
2022/09/10 01:16:32;;;;;;;16.55;10.93;;;15.10;99.90;;;;;;5015442;28;20057;-95
2022/09/10 01:19:19;;;;;;;17.50;11.35;;;15.20;99.90;;;;;;4998924;28;20068;-95
2022/09/10 01:21:58;;;;;;;18.02;11.75;;;15.20;99.90;;;;;;5014945;28;20081;-95
2022/09/10 01:24:47;;;;;;;15.38;11.95;;;15.20;99.90;;;;;;4993560;28;20074;-95
2022/09/10 01:27:30;;;;;;;16.15;11.07;;;15.20;99.90;;;;;;4994331;28;20051;-96
2022/09/10 01:30:09;;;;;;;15.95;12.32;;;15.20;99.90;;;;;;4994338;28;20058;-95
2022/09/10 01:32:58;;;;;;;20.48;11.20;;;15.20;99.90;;;;;;5011841;28;20410;-95
2022/09/10 01:35:29;;;;;;;15.73;12.02;;;15.20;99.90;;;;;;5011615;28;20089;-95
2022/09/10 01:38:00;;;;;;;16.45;12.05;;;15.20;99.90;;;;;;4994389;28;20050;-95
2022/09/10 01:40:32;;;;;;;20.23;13.02;;;15.20;99.90;;;;;;5010845;28;20058;-94
2022/09/10 01:43:01;;;;;;;21.50;13.32;;;15.20;99.90;;;;;;5011488;28;20046;-96
2022/09/10 02:11:58;;;;;;;19.75;14.80;;;15.20;99.90;;;;;;4987784;28;20051;-93
2022/09/10 02:14:25;;;;;;;21.02;15.20;;;15.20;99.90;;;;;;4969919;28;20051;-93
2022/09/10 02:16:59;;;;;;;24.55;16.05;;;14.60;99.90;;;;;;4969869;28;20065;-93
2022/09/10 02:19:26;;;;;;;27.27;18.27;;;15.20;99.90;;;;;;4968843;28;20039;-92
2022/09/10 02:21:55;;;;;;;26.40;19.15;;;15.20;99.90;;;;;;4970907;28;20076;-93
2022/09/10 02:24:27;;;;;;;30.23;19.50;;;15.10;99.90;;;;;;4970102;28;20051;-94
2022/09/10 02:26:56;;;;;;;37.80;20.75;;;15.20;99.90;;;;;;4969129;28;20150;-94
2022/09/10 02:29:34;;;;;;;36.10;21.65;;;15.20;99.90;;;;;;4969932;28;20137;-92
2022/09/10 02:32:08;;;;;;;33.03;21.77;;;15.20;99.90;;;;;;4970639;28;20475;-93
2022/09/10 02:34:45;;;;;;;35.13;22.13;;;15.10;99.90;;;;;;4969369;28;20055;-93
2022/09/10 02:37:15;;;;;;;32.55;20.38;;;15.20;99.90;;;;;;4970295;28;20101;-93
2022/09/10 02:39:52;;;;;;;35.13;22.45;;;15.10;99.90;;;;;;4969979;28;20053;-93
2022/09/10 02:42:17;;;;;;;36.40;22.52;;;15.20;99.90;;;;;;4969831;28;20042;-93
2022/09/10 02:44:43;;;;;;;30.75;21.70;;;15.20;99.90;;;;;;4970151;28;20485;-93
2022/09/10 02:47:09;;;;;;;29.40;20.45;;;15.20;99.90;;;;;;4970356;28;20479;-93
2022/09/10 02:49:44;;;;;;;36.22;23.25;;;15.20;99.90;;;;;;4986689;28;20117;-93
2022/09/10 02:52:11;;;;;;;37.03;22.65;;;15.20;99.90;;;;;;4989650;28;20086;-93
2022/09/10 02:54:37;;;;;;;37.78;23.17;;;15.20;99.90;;;;;;4988242;28;20129;-92
2022/09/10 02:57:13;;;;;;;38.88;22.67;;;15.20;99.90;;;;;;4989485;28;20053;-92
2022/09/10 02:59:38;;;;;;;35.60;21.60;;;15.20;99.90;;;;;;4989133;28;20053;-93
2022/09/10 03:02:11;;;;;;;31.70;22.48;;;15.20;99.90;;;;;;4988847;28;20085;-93
2022/09/10 03:04:40;;;;;;;39.17;25.85;;;15.20;99.90;;;;;;4988935;28;20051;-92
2022/09/10 03:07:19;;;;;;;;;;;;;;;;;;;;;
2022/09/10 03:09:46;;;;;;;43.85;27.25;;;15.20;99.90;;;;;;4990031;28;20104;-92
2022/09/10 03:12:22;;;;;;;38.47;25.27;;;15.20;99.90;;;;;;4989100;28;20054;-93
2022/09/10 03:14:52;;;;;;;39.78;26.40;;;15.20;99.90;;;;;;4988394;28;20054;-93
2022/09/10 03:17:20;;;;;;;34.78;24.20;;;15.20;99.90;;;;;;4989188;28;20137;-92
2022/09/10 03:19:46;;;;;;;36.20;24.23;;;15.20;99.90;;;;;;4988317;28;20043;-92
2022/09/10 03:22:18;;;;;;;41.35;27.38;;;15.20;99.90;;;;;;4989308;28;20195;-93
2022/09/10 03:24:49;;;;;;;46.53;28.60;;;15.10;99.90;;;;;;4988423;28;20046;-93
2022/09/10 03:27:26;;;;;;;41.13;27.50;;;15.20;99.90;;;;;;4989058;28;20054;-93
2022/09/10 03:29:55;;;;;;;40.85;27.40;;;15.20;99.90;;;;;;4989169;28;20569;-92
2022/09/10 03:32:42;;;;;;;42.47;25.90;;;15.20;99.90;;;;;;4988767;28;20042;-93
2022/09/10 03:35:17;;;;;;;44.95;27.67;;;15.20;99.90;;;;;;4971216;28;20186;-94
2022/09/10 03:37:45;;;;;;;43.45;27.83;;;15.20;99.90;;;;;;4988139;28;20052;-93
2022/09/10 03:40:14;;;;;;;45.92;28.33;;;15.20;99.90;;;;;;5006877;23;20074;-92
2022/09/10 03:42:54;;;;;;;46.45;28.30;;;15.20;99.90;;;;;;4992344;28;20112;-93
2022/09/10 03:45:20;;;;;;;42.83;27.45;;;15.10;99.90;;;;;;4991208;28;20049;-92
2022/09/10 03:47:52;;;;;;;46.03;29.27;;;15.20;99.90;;;;;;4991822;28;20053;-93
2022/09/10 03:50:27;;;;;;;53.42;28.92;;;15.20;99.90;;;;;;4991203;28;20045;-93
2022/09/10 03:52:56;;;;;;;43.97;28.75;;;15.10;99.90;;;;;;4992101;28;20057;-93
2022/09/10 03:55:41;;;;;;;48.63;28.85;;;15.20;99.90;;;;;;4991612;28;20052;-93
2022/09/10 03:59:27;;;;;;;;;;;;;;;;;;;;;
2022/09/10 04:02:27;;;;;;;44.58;29.42;;;15.10;99.90;;;;;;4960249;28;20129;-93
2022/09/10 04:05:47;;;;;;;;;;;;;;;;;;;;;
2022/09/10 04:09:27;;;;;;;41.45;27.55;;;15.20;99.90;;;;;;4992041;28;20048;-93
2022/09/10 04:11:52;;;;;;;;;;;15.10;99.90;;;;;;4895349;28;20066;-93
2022/09/10 04:14:36;;;;;;;;;;;;;;;;;;;;;
2022/09/10 04:17:23;;;;;;;;;;;;;;;;;;;;;
2022/09/10 04:20:36;;;;;;;;;;;;;;;;;;;;;
2022/09/10 04:23:19;;;;;;;46.33;28.85;;;15.10;99.90;;;;;;4972130;28;20118;-93
2022/09/10 04:25:51;;;;;;;45.03;28.75;;;15.10;99.90;;;;;;4958623;28;20038;-92
2022/09/10 04:28:28;;;;;;;;;;;;;;;;;;;;;
2022/09/10 04:31:09;;;;;;;47.88;28.42;;;15.20;99.90;;;;;;4975774;28;20065;-93
2022/09/10 04:33:55;;;;;;;51.10;30.33;;;15.20;99.90;;;;;;4975293;28;20049;-93
2022/09/10 04:36:26;;;;;;;52.83;31.25;;;15.20;99.90;;;;;;4958179;28;20045;-93
2022/09/10 04:39:01;;;;;;;51.97;30.52;;;15.20;99.90;;;;;;4960051;28;20113;-92
2022/09/10 04:41:39;;;;;;;54.75;32.05;;;15.20;99.90;;;;;;4958557;28;20153;-93
2022/09/10 04:44:05;;;;;;;46.17;28.27;;;15.20;99.90;;;;;;4959467;28;20101;-92
2022/09/10 04:47:23;;;;;;;48.65;27.98;;;15.20;99.90;;;;;;4959234;28;20183;-93
2022/09/10 04:49:54;;;;;;;47.70;27.98;;;15.20;99.90;;;;;;4880714;28;20081;-92
2022/09/10 04:52:29;;;;;;;77.03;29.58;;;15.20;99.90;;;;;;4975366;28;20049;-90
2022/09/10 04:55:17;;;;;;;38.00;25.92;;;15.20;99.90;;;;;;4978060;28;20501;-93
2022/09/10 04:58:20;;;;;;;;;;;;;;;;;;;;;
2022/09/10 05:00:57;;;;;;;43.97;26.77;;;15.40;99.90;;;;;;5010754;28;20484;-92
2022/09/10 05:03:23;;;;;;;45.28;27.92;;;15.30;99.90;;;;;;4993412;28;20092;-92
2022/09/10 05:05:57;;;;;;;47.30;29.27;;;15.30;99.90;;;;;;4967062;28;20038;-91
2022/09/10 05:08:43;;;;;;;42.45;27.80;;;15.30;99.90;;;;;;4976435;28;20416;-93
2022/09/10 05:11:10;;;;;;;45.15;27.05;;;15.30;99.90;;;;;;4975806;28;20100;-92
2022/09/10 05:14:15;;;;;;;41.88;26.35;;;15.30;99.90;;;;;;4994686;28;20050;-92
2022/09/10 05:16:50;;;;;;;41.53;26.75;;;15.00;99.90;;;;;;4974402;28;20054;-92
2022/09/10 05:19:31;;;;;;;40.15;26.25;;;15.30;99.90;;;;;;4995531;28;20104;-91
2022/09/10 05:22:25;;;;;;;40.75;25.48;;;15.30;99.90;;;;;;4995028;28;20041;-92
2022/09/10 05:24:51;;;;;;;36.55;24.02;;;15.40;99.90;;;;;;4971907;28;20054;-92
2022/09/10 05:27:24;;;;;;;44.88;24.17;;;15.30;99.90;;;;;;4994139;28;20046;-92
2022/09/10 05:29:59;;;;;;;38.33;24.33;;;15.40;99.90;;;;;;4999171;28;20498;-93
2022/09/10 05:32:37;;;;;;;;;;;;;;;;;;;;;
2022/09/10 05:35:44;;;;;;;40.10;23.65;;;15.40;99.90;;;;;;5054455;22;20065;-92
2022/09/10 05:38:31;;;;;;;;;;;;;;;;;;;;;
2022/09/10 05:41:44;;;;;;;31.85;21.65;;;15.40;99.90;;;;;;5004349;28;20560;-93
2022/09/10 05:48:00;;;;;;;;;;;;;;;;;;;;;
2022/09/10 06:01:52;;;;;;;;;;;;;;;;;;;;;
2022/09/10 06:04:35;;;;;;;32.63;19.42;;;15.50;99.90;;;;;;4985345;28;20057;-92
2022/09/10 06:10:04;;;;;;;30.27;19.67;;;15.50;99.90;;;;;;4962817;28;20048;-93
2022/09/10 06:28:11;;;;;;;;;;;;;;;;;;;;;
2022/09/10 06:31:35;;;;;;;31.10;21.40;;;15.80;99.90;;;;;;5017376;28;20052;-91
2022/09/10 06:34:21;;;;;;;;;;;;;;;;;;;;;
2022/09/10 06:37:47;;;;;;;32.15;20.73;;;15.80;99.90;;;;;;5029008;28;20099;-92
2022/09/10 06:40:53;;;;;;;37.03;21.17;;;15.90;99.90;;;;;;5018867;28;20064;-92
2022/09/10 06:43:36;;;;;;;34.97;22.30;;;15.90;99.90;;;;;;4986208;23;20096;-89
2022/09/10 06:46:08;;;;;;;37.05;21.10;;;16.00;99.90;;;;;;4992112;28;20088;-89
2022/09/10 06:48:41;;;;;;;28.02;20.48;;;16.00;99.90;;;;;;4972891;28;20451;-88
2022/09/10 06:51:22;;;;;;;28.98;20.10;;;16.00;99.90;;;;;;4991485;28;20414;-89
2022/09/10 06:57:14;;;;;;;;;;;;;;;;;;;;;
2022/09/10 07:00:27;;;;;;;31.75;20.40;;;16.10;99.90;;;;;;4989410;28;20050;-89
2022/09/10 07:03:17;;;;;;;34.85;20.08;;;16.10;99.90;;;;;;4999282;28;20050;-94
2022/09/10 07:05:56;;;;;;;28.88;19.48;;;16.10;99.90;;;;;;4999154;28;20057;-88
2022/09/10 07:08:24;;;;;;;32.65;20.23;;;16.40;99.90;;;;;;4979582;28;20287;-88
2022/09/10 07:11:00;;;;;;;32.25;18.52;;;16.20;99.90;;;;;;4984019;28;20046;-92
2022/09/10 07:13:38;;;;;;;32.72;19.63;;;16.20;99.90;;;;;;4975186;28;20046;-90
2022/09/10 07:23:21;;;;;;;36.05;20.55;;;16.20;99.90;;;;;;5065660;22;20066;-92
2022/09/10 07:42:20;;;;;;;;;;;;;;;;;;;;;
2022/09/10 07:49:26;;;;;;;;;;;;;;;;;;;;;
2022/09/10 09:26:48;;;;;;;23.00;17.17;;;17.10;99.90;;;;;;2707313;23;20329;-96
2022/09/10 09:29:29;;;;;;;26.17;18.23;;;17.10;99.90;;;;;;4902858;29;20067;-95
2022/09/10 09:32:09;;;;;;;24.77;17.63;;;17.10;99.90;;;;;;4921980;29;20039;-95
2022/09/10 09:35:04;;;;;;;23.17;17.77;;;17.20;99.90;;;;;;4920891;29;20174;-95
2022/09/10 09:37:33;;;;;;;29.83;17.45;;;16.90;99.90;;;;;;4905787;29;20058;-96
2022/09/10 09:40:26;;;;;;;28.02;18.13;;;17.10;99.90;;;;;;4920882;29;20121;-95
2022/09/10 09:43:11;;;;;;;28.10;16.38;;;17.20;99.90;;;;;;4923743;29;20248;-96
2022/09/10 09:45:46;;;;;;;27.88;17.63;;;17.10;99.90;;;;;;4904838;29;20055;-95
2022/09/10 09:48:14;;;;;;;26.55;17.30;;;17.10;99.90;;;;;;4922185;29;20054;-96
2022/09/10 09:50:54;;;;;;;28.38;16.35;;;17.10;99.90;;;;;;4921257;29;20501;-95
2022/09/10 09:53:29;;;;;;;26.35;16.30;;;17.20;99.90;;;;;;4921929;29;20044;-96
2022/09/10 09:56:00;;;;;;;26.45;15.98;;;17.20;99.90;;;;;;4920910;29;20492;-94
2022/09/10 09:58:33;;;;;;;24.83;16.38;;;17.20;99.90;;;;;;4936911;29;20059;-96
2022/09/10 10:01:03;;;;;;;25.75;17.73;;;17.30;99.90;;;;;;4921574;29;20108;-94
2022/09/10 10:03:32;;;;;;;23.35;16.42;;;17.20;99.90;;;;;;4904492;29;20059;-95
2022/09/10 10:06:09;;;;;;;27.27;16.63;;;17.30;99.90;;;;;;4921368;29;20052;-95
2022/09/10 10:08:41;;;;;;;23.25;15.32;;;17.30;99.90;;;;;;4920743;29;20060;-96
2022/09/10 10:11:54;;;;;;;24.15;15.77;;;17.30;99.90;;;;;;4919848;29;20047;-94
2022/09/10 10:14:34;;;;;;;23.77;15.63;;;17.30;99.90;;;;;;4919593;29;20040;-95
2022/09/10 10:17:03;;;;;;;23.42;15.77;;;17.30;99.90;;;;;;4921555;29;20154;-95
2022/09/10 10:19:35;;;;;;;27.65;15.75;;;17.40;99.90;;;;;;4921009;29;20040;-95
2022/09/10 10:22:13;;;;;;;28.50;16.45;;;17.30;99.90;;;;;;4920618;29;20042;-94
2022/09/10 10:24:44;;;;;;;23.17;15.80;;;17.40;99.90;;;;;;4905293;29;20151;-94
2022/09/10 10:27:41;;;;;;;22.98;14.27;;;17.40;99.90;;;;;;4916633;29;20504;-94
2022/09/10 10:30:31;;;;;;;23.98;13.55;;;17.30;99.90;;;;;;4932724;29;20167;-94
2022/09/10 10:33:42;;;;;;;22.77;14.10;;;17.30;99.90;;;;;;4909560;29;20052;-94
2022/09/10 10:36:26;;;;;;;24.63;13.20;;;17.40;99.90;;;;;;4901544;29;20059;-94
2022/09/10 10:39:13;;;;;;;17.80;12.30;;;17.40;99.90;;;;;;4917373;29;20052;-95
2022/09/10 10:41:54;;;;;;;18.23;12.93;;;17.60;99.90;;;;;;4916631;29;20137;-94
2022/09/10 10:45:09;;;;;;;19.23;12.23;;;17.50;99.90;;;;;;4914927;29;20617;-95
2022/09/10 10:47:47;;;;;;;18.15;11.50;;;17.50;99.90;;;;;;4891013;29;20118;-95
2022/09/10 10:50:14;;;;;;;19.13;12.88;;;17.60;99.90;;;;;;4913024;29;20079;-94
2022/09/10 10:53:01;;;;;;;18.35;12.45;;;17.60;99.90;;;;;;4933910;29;20076;-94
2022/09/10 10:55:58;;;;;;;22.42;12.38;;;17.80;99.90;;;;;;4916680;29;20488;-94
2022/09/10 10:58:45;;;;;;;17.75;11.65;;;17.90;99.90;;;;;;4900903;29;20169;-94
2022/09/10 11:01:24;;;;;;;18.60;12.23;;;17.90;99.90;;;;;;4918370;29;20084;-94
2022/09/10 11:04:18;;;;;;;18.48;12.77;;;18.00;99.90;;;;;;4901708;29;20083;-94
2022/09/10 11:06:51;;;;;;;20.85;13.32;;;18.10;99.90;;;;;;4916561;29;20489;-94
2022/09/10 11:09:37;;;;;;;20.63;13.18;;;18.10;99.90;;;;;;4903183;29;20055;-94
2022/09/10 11:12:06;;;;;;;19.45;13.70;;;18.30;99.90;;;;;;4919856;29;20062;-94
2022/09/10 11:14:47;;;;;;;21.95;13.55;;;18.30;99.90;;;;;;4919534;29;20044;-93
2022/09/10 11:17:20;;;;;;;20.92;13.30;;;18.40;99.90;;;;;;4919479;29;20047;-93
2022/09/10 11:19:53;;;;;;;;;;;18.40;99.90;;;;;;4919615;29;20100;-93
2022/09/10 11:22:27;;;;;;;21.25;11.15;;;18.50;99.90;;;;;;4919353;29;19923;-93
2022/09/10 11:25:01;;;;;;;15.45;10.18;;;18.50;99.90;;;;;;4919510;29;20138;-94
2022/09/10 11:27:33;;;;;;;16.25;10.10;;;18.50;99.90;;;;;;4919543;29;20064;-93
2022/09/10 11:30:08;;;;;;;12.90;9.90;;;18.50;99.90;;;;;;4921038;29;20048;-93
2022/09/10 11:32:41;;;;;;;17.90;10.82;;;18.50;99.90;;;;;;4921491;29;20063;-94
2022/09/10 11:35:26;;;;;;;14.23;9.95;;;18.60;99.90;;;;;;4920415;29;20078;-91
2022/09/10 11:38:04;;;;;;;17.17;11.18;;;18.60;99.90;;;;;;4919735;29;20047;-91
2022/09/10 11:41:01;;;;;;;16.67;9.73;;;18.70;99.90;;;;;;4919410;29;20043;-91
2022/09/10 11:43:36;;;;;;;15.23;9.90;;;18.70;99.90;;;;;;4918480;29;20048;-92
2022/09/10 11:46:08;;;;;;;13.25;9.57;;;18.80;99.90;;;;;;4920760;29;20060;-91
2022/09/10 11:48:41;;;;;;;15.18;9.65;;;18.80;99.90;;;;;;4918919;29;20065;-91
2022/09/10 11:51:17;;;;;;;18.30;10.27;;;18.90;99.90;;;;;;4919095;29;20044;-90
2022/09/10 11:53:44;;;;;;;14.48;9.63;;;18.90;99.90;;;;;;4919063;29;20048;-89
2022/09/10 11:56:37;;;;;;;14.77;10.52;;;18.90;99.90;;;;;;4919136;29;20035;-90
2022/09/10 11:59:13;;;;;;;11.98;9.10;;;19.20;99.90;;;;;;4915314;29;20151;-93
2022/09/10 12:02:01;;;;;;;15.68;9.57;;;19.30;99.90;;;;;;4917815;29;20221;-90
2022/09/10 12:04:48;;;;;;;13.10;8.85;;;19.50;99.90;;;;;;4918668;29;20044;-89
2022/09/10 12:07:22;;;;;;;15.32;9.13;;;19.60;99.90;;;;;;4923363;29;20044;-90
2022/09/10 12:10:01;;;;;;;11.38;8.40;;;19.70;99.90;;;;;;4918094;29;20054;-90
2022/09/10 12:12:41;;;;;;;10.98;8.32;;;19.80;99.90;;;;;;4917522;29;20167;-90
2022/09/10 12:15:21;;;;;;;12.82;8.73;;;20.00;99.90;;;;;;4934394;29;20051;-89
2022/09/10 12:17:55;;;;;;;8.43;6.45;;;20.20;99.90;;;;;;4918671;29;20055;-89
2022/09/10 12:20:29;;;;;;;8.75;6.45;;;20.50;99.90;;;;;;4917235;29;20134;-90
2022/09/10 12:22:55;;;;;;;8.75;6.05;;;20.70;99.90;;;;;;4917260;29;20091;-89
2022/09/10 12:25:21;;;;;;;7.93;5.22;;;20.80;99.90;;;;;;4919779;29;20087;-90
2022/09/10 12:27:55;;;;;;;8.95;6.00;;;20.90;99.90;;;;;;4918682;29;20102;-90
2022/09/10 12:30:26;;;;;;;11.48;6.25;;;21.00;99.90;;;;;;4919936;29;20048;-90
2022/09/10 12:32:53;;;;;;;9.05;6.10;;;21.00;99.90;;;;;;4918238;29;20048;-90
2022/09/10 12:35:29;;;;;;;8.50;5.40;;;21.00;99.90;;;;;;4918191;29;20126;-90
2022/09/10 12:38:34;;;;;;;10.05;6.40;;;20.90;99.90;;;;;;4918306;29;20048;-88
2022/09/10 12:41:02;;;;;;;9.13;5.45;;;20.90;99.90;;;;;;4950294;29;20044;-90
2022/09/10 12:43:40;;;;;;;8.35;5.35;;;20.90;99.90;;;;;;4918178;29;20052;-89
2022/09/10 12:46:07;;;;;;;7.85;4.93;;;21.00;99.90;;;;;;4950863;28;20464;-88
2022/09/10 12:48:38;;;;;;;12.48;5.32;;;21.00;99.90;;;;;;4953129;29;20404;-89
2022/09/10 12:51:30;;;;;;;16.25;8.07;;;21.10;99.90;;;;;;4921448;29;20044;-92
2022/09/10 12:54:03;;;;;;;9.30;5.50;;;21.20;99.90;;;;;;4904395;29;20059;-91
2022/09/10 12:56:51;;;;;;;8.55;4.97;;;21.40;99.90;;;;;;4954936;29;20084;-92
2022/09/10 12:59:43;;;;;;;7.90;5.10;;;21.40;99.90;;;;;;4924488;29;20559;-93
2022/09/10 13:02:26;;;;;;;7.97;5.10;;;21.40;99.90;;;;;;4925858;29;20044;-92
2022/09/10 13:04:56;;;;;;;9.95;4.55;;;21.50;99.90;;;;;;4923711;29;20047;-92
2022/09/10 13:07:31;;;;;;;5.57;2.83;;;21.50;99.90;;;;;;4921492;29;20138;-91
2022/09/10 13:10:03;;;;;;;7.95;3.50;;;21.50;99.90;;;;;;4921887;29;20055;-92
2022/09/10 13:12:31;;;;;;;7.22;3.85;;;21.50;99.90;;;;;;4921265;29;20039;-92
2022/09/10 13:15:00;;;;;;;9.00;4.28;;;21.50;99.90;;;;;;4921553;29;20059;-92
2022/09/10 13:17:58;;;;;;;7.13;4.47;;;21.50;99.90;;;;;;4921675;29;20392;-92
2022/09/10 13:20:24;;;;;;;8.52;4.85;;;21.50;99.90;;;;;;4905886;29;20048;-92
2022/09/10 13:22:57;;;;;;;8.25;4.25;;;21.60;99.90;;;;;;4921741;29;20047;-92
2022/09/10 13:25:31;;;;;;;8.10;5.13;;;21.70;99.90;;;;;;4936973;29;20047;-93
2022/09/10 13:27:57;;;;;;;9.57;5.55;;;21.70;99.90;;;;;;4930682;29;20508;-92
2022/09/10 13:30:23;;;;;;;10.43;7.80;;;21.70;99.90;;;;;;4902265;29;20048;-92
2022/09/10 13:32:51;;;;;;;12.98;8.00;;;21.60;99.90;;;;;;4917945;29;20048;-92
2022/09/10 13:35:18;;;;;;;12.75;8.23;;;21.60;99.90;;;;;;4902222;29;20054;-94
2022/09/10 13:38:06;;;;;;;15.75;8.95;;;21.50;99.90;;;;;;4903902;29;20086;-91
2022/09/10 13:40:50;;;;;;;12.10;8.82;;;21.40;99.90;;;;;;4918882;29;20044;-95
2022/09/10 13:43:23;;;;;;;12.38;8.80;;;21.20;99.90;;;;;;4902654;29;20072;-90
2022/09/10 13:45:54;;;;;;;12.07;8.75;;;21.00;99.90;;;;;;4903691;29;20051;-92
2022/09/10 13:48:26;;;;;;;15.23;9.02;;;20.90;99.90;;;;;;4917971;29;20079;-93
2022/09/10 13:51:04;;;;;;;17.58;9.48;;;20.80;99.90;;;;;;4916602;29;20408;-92
2022/09/10 13:53:32;;;;;;;11.90;7.88;;;20.60;99.90;;;;;;4918471;29;20139;-90
2022/09/10 13:56:06;;;;;;;9.85;7.30;;;20.50;99.90;;;;;;4901908;29;20180;-89
2022/09/10 13:58:35;;;;;;;9.57;6.30;;;20.30;99.90;;;;;;4917347;29;20092;-92
2022/09/10 14:01:03;;;;;;;9.02;6.10;;;20.20;99.90;;;;;;4917553;29;20506;-91
2022/09/10 14:03:32;;;;;;;10.80;6.60;;;20.20;99.90;;;;;;4936385;29;20047;-93
2022/09/10 14:06:03;;;;;;;9.80;5.90;;;20.20;99.90;;;;;;4922100;29;20056;-92
2022/09/10 14:08:34;;;;;;;8.70;6.30;;;20.10;99.90;;;;;;4952108;29;20047;-92
2022/09/10 14:11:03;;;;;;;12.50;7.40;;;20.20;99.90;;;;;;4919819;29;20044;-88
2022/09/10 14:13:38;;;;;;;12.00;7.75;;;20.20;99.90;;;;;;4951138;29;20114;-88
2022/09/10 14:16:08;;;;;;;10.68;7.20;;;20.30;99.90;;;;;;4919780;29;20434;-87
2022/09/10 14:18:42;;;;;;;10.32;6.68;;;20.40;99.90;;;;;;4937604;29;20055;-89
2022/09/10 14:21:11;;;;;;;11.27;7.10;;;20.40;99.90;;;;;;4919665;29;20079;-89
2022/09/10 14:23:41;;;;;;;10.23;6.90;;;20.50;99.90;;;;;;4919509;29;20087;-88
2022/09/10 14:26:22;;;;;;;9.55;6.63;;;20.40;99.90;;;;;;4927311;29;20039;-90
2022/09/10 14:28:50;;;;;;;10.68;6.93;;;20.40;99.90;;;;;;4921359;29;20095;-92
2022/09/10 14:31:27;;;;;;;9.77;5.82;;;20.30;99.90;;;;;;4947984;29;20055;-94
2022/09/10 14:33:55;;;;;;;13.07;7.20;;;20.30;99.90;;;;;;4918570;29;20098;-92
2022/09/10 14:36:32;;;;;;;10.25;5.68;;;20.30;99.90;;;;;;4915275;29;20059;-93
2022/09/10 14:39:12;;;;;;;13.48;5.20;;;20.20;99.90;;;;;;4933511;29;20103;-92
2022/09/10 14:41:43;;;;;;;10.63;5.22;;;20.20;99.90;;;;;;4904116;29;20047;-96
2022/09/10 14:44:28;;;;;;;7.70;4.15;;;20.10;99.90;;;;;;4900665;29;20044;-91
2022/09/10 14:46:57;;;;;;;8.25;4.70;;;20.00;99.90;;;;;;4901487;29;20059;-91
2022/09/10 14:49:30;;;;;;;11.27;4.65;;;19.90;99.90;;;;;;4901149;29;20063;-92
2022/09/10 14:51:57;;;;;;;8.13;4.88;;;19.80;99.90;;;;;;4907972;29;20083;-91
2022/09/10 14:54:24;;;;;;;7.80;4.72;;;19.80;99.90;;;;;;4902330;29;20147;-91
2022/09/10 14:56:50;;;;;;;12.27;4.53;;;19.80;99.90;;;;;;4902660;29;20044;-91
2022/09/10 14:59:29;;;;;;;8.85;4.15;;;19.80;99.90;;;;;;4916528;29;20036;-91
2022/09/10 15:01:56;;;;;;;8.25;4.53;;;19.80;99.90;;;;;;4934699;29;20472;-90
2022/09/10 15:04:25;;;;;;;8.75;5.45;;;19.80;99.90;;;;;;4934585;29;20051;-92
2022/09/10 15:06:52;;;;;;;10.73;5.95;;;19.90;99.90;;;;;;4934788;29;20052;-91
2022/09/10 15:09:19;;;;;;;9.52;5.95;;;20.00;99.90;;;;;;4934413;29;20134;-91
2022/09/10 15:11:56;;;;;;;13.32;8.18;;;20.10;99.90;;;;;;4935525;29;20052;-91
2022/09/10 15:14:22;;;;;;;14.48;9.95;;;20.10;99.90;;;;;;4935392;29;20073;-90
2022/09/10 15:16:51;;;;;;;15.27;9.85;;;20.10;99.90;;;;;;4936568;29;20052;-92
2022/09/10 15:19:18;;;;;;;17.80;9.65;;;20.00;99.90;;;;;;4935356;29;20536;-92
2022/09/10 15:21:44;;;;;;;14.07;9.55;;;19.90;99.90;;;;;;4926422;29;20048;-91
2022/09/10 15:24:16;;;;;;;16.05;9.30;;;19.80;99.90;;;;;;4923665;29;20484;-90
2022/09/10 15:26:42;;;;;;;15.52;9.90;;;19.80;99.90;;;;;;4927625;29;20052;-91
2022/09/10 15:29:09;;;;;;;12.85;9.07;;;19.70;99.90;;;;;;4919069;29;20052;-91
2022/09/10 15:31:36;;;;;;;10.73;8.15;;;19.70;99.90;;;;;;4918916;29;20050;-91
2022/09/10 15:34:05;;;;;;;13.48;8.07;;;19.60;99.90;;;;;;4917873;29;20039;-90
2022/09/10 15:36:34;;;;;;;13.27;9.13;;;19.60;99.90;;;;;;4927148;29;20051;-90
2022/09/10 15:39:00;;;;;;;14.63;9.18;;;19.60;99.90;;;;;;4920691;29;20047;-91
2022/09/10 15:41:26;;;;;;;14.40;9.27;;;19.50;99.90;;;;;;4914195;29;20040;-91
2022/09/10 15:43:52;;;;;;;17.60;8.82;;;19.40;99.90;;;;;;4902586;29;20052;-91
2022/09/10 15:46:20;;;;;;;14.25;8.63;;;19.40;99.90;;;;;;4900403;29;20048;-94
2022/09/10 15:48:46;;;;;;;16.23;8.73;;;19.50;99.90;;;;;;4901671;28;20024;-94
2022/09/10 15:51:14;;;;;;;16.67;8.98;;;19.60;99.90;;;;;;4903013;29;20523;-94
2022/09/10 15:53:42;;;;;;;17.42;9.18;;;19.60;99.90;;;;;;4906335;29;20160;-92
2022/09/10 15:56:10;;;;;;;13.10;8.25;;;19.60;99.90;;;;;;4931756;29;20519;-90
2022/09/10 15:58:36;;;;;;;14.07;8.10;;;19.60;99.90;;;;;;4932158;29;20044;-91
2022/09/10 16:01:04;;;;;;;13.13;7.60;;;19.50;99.90;;;;;;4933905;29;20052;-92
2022/09/10 16:03:31;;;;;;;11.30;8.00;;;19.60;99.90;;;;;;4934986;29;20048;-91
2022/09/10 16:06:02;;;;;;;10.90;7.82;;;19.50;99.90;;;;;;4899580;29;20131;-91
2022/09/10 16:08:28;;;;;;;14.20;7.93;;;19.50;99.90;;;;;;4901908;29;20048;-91
2022/09/10 16:10:57;;;;;;;12.10;6.78;;;19.40;99.90;;;;;;4901145;29;20059;-93
2022/09/10 16:13:24;;;;;;;14.43;7.50;;;19.40;99.90;;;;;;4919024;29;20130;-91
2022/09/10 16:16:01;;;;;;;11.10;6.97;;;19.30;99.90;;;;;;4910631;29;20492;-93
2022/09/10 16:18:28;;;;;;;16.63;7.57;;;19.30;99.90;;;;;;4927371;29;20039;-91
2022/09/10 16:20:54;;;;;;;13.23;7.60;;;19.30;99.90;;;;;;4917063;29;20551;-93
2022/09/10 16:23:20;;;;;;;10.98;6.90;;;19.30;99.90;;;;;;4935909;29;20051;-90
2022/09/10 16:25:51;;;;;;;13.20;7.28;;;19.30;99.90;;;;;;4934176;29;20075;-90
2022/09/10 16:28:17;;;;;;;11.32;7.18;;;19.40;99.90;;;;;;4924576;29;20048;-89
2022/09/10 16:30:43;;;;;;;12.40;7.35;;;19.40;99.90;;;;;;4926925;29;20045;-90
2022/09/10 16:33:10;;;;;;;15.45;7.90;;;19.40;99.90;;;;;;4928067;29;20066;-90
2022/09/10 16:35:35;;;;;;;9.07;6.47;;;19.30;99.90;;;;;;4937189;29;20051;-92
2022/09/10 16:38:01;;;;;;;13.00;7.57;;;19.20;99.90;;;;;;4930747;29;20051;-91
2022/09/10 16:40:27;;;;;;;15.20;7.50;;;19.20;99.90;;;;;;4955155;29;20047;-91
2022/09/10 16:42:53;;;;;;;15.98;7.55;;;19.10;99.90;;;;;;4955560;29;20515;-93
2022/09/10 16:45:19;;;;;;;15.25;7.28;;;19.00;99.90;;;;;;4952620;29;20473;-92
2022/09/10 16:47:44;;;;;;;15.18;8.48;;;18.90;99.90;;;;;;4919735;29;20044;-93